East Glacier Park, MT

12:23 AM MST on January 19, 2018 (GMT -0700)
WINData - Snow Slip, MT | | Change Station
Active Advisory: Winter Weather Advisory

Elev 4380 ft 48.26 °N, 113.46 °W | Updated 2 minutes ago

Overcast
Overcast
30.8 °F
Feels Like 31 °F
N
0.0
Wind Variable Wind from SSW
Gusts 0.0 mph

Today
High -- | Low -- °F
--% Chance of Precip.
Yesterday
High -- | Low -- °F
Precip. -- in
Pressure 29.67 in
Visibility 10.0 miles
Clouds Clear
Windchill 31 °F
Dew Point 30 °F
Humidity 95%
Rainfall 0.00 in
Snow Depth Not available.
8:16 AM 5:11 PM
Waxing Crescent, 4% visible
METAR KCTB 190656Z AUTO 25007KT 10SM CLR 01/M04 A2963 RMK AO2 WSHFT 0546 SLP046 T00111044 401000006
Pressure 29.67 in
Visibility 10.0 miles
Clouds Clear
Windchill 31 °F
Dew Point 30 °F
Humidity 95%
Rainfall 0.00 in
Snow Depth Not available.
8:16 AM 5:11 PM
Waxing Crescent, 4% visible
METAR KCTB 190656Z AUTO 25007KT 10SM CLR 01/M04 A2963 RMK AO2 WSHFT 0546 SLP046 T00111044 401000006

Get Your Daily Forecast Email!

Thanks for signing up!

Be on the lookout for a verification email in your inbox.

You'll start receiving severe weather alerts in your inbox..

×

10-Day Weather Forecast

Almanac

Astronomy

Jan. 19, 2018 Rise Set
Actual Time
Civil Twilight
Nautical Twilight
Astronomical Twilight
Moon
Length of Visible Light
Length of Day
Tomorrow will be .
, % of the Moon is Illuminated

Today's Extremes

State Highs State Lows

Community

WunderPhotos

Category 6

Welcome to Category 6. This is the collective home for Weather Underground's featured writeups by Dr. Jeff Masters (right), Bob Henson (left), Chris Burt, and other regular contributors.

Nearby

Air Quality

  Air Quality AQ Index Pollutant
Not available.

Snow Depth

Station Depth Elevation

Earthquake Activity

City Distance Mag. Time & Date
Minimum magnitude displayed is 2.5.

Coastal Water Temperatures

Place Temperature

Stations

Nearby Weather Stations

Station Location Temp. Windchill Dew Point Humidity Wind Precip. Elev Updated Type
                   

Watches & Warnings

Winter Weather Advisory
Issued: 8:40 PM MST Jan. 18, 2018 – National Weather Service

... Winter Weather Advisory remains in effect until 11 am MST
Friday...

* what... snow occurring. Plan on slippery Road conditions.
Additional snow accumulations of 1 to 2 inches, with localized
amounts up to 4 to 6 inches in the mountains, are expected.

* Where... northern Rocky Mountain front and southern Rocky
Mountain front.

* When... until 11 am MST Friday.

* Additional details... be prepared for reduced visibilities at
times.

Precautionary/preparedness actions...

A Winter Weather Advisory for snow means periods of snow will
cause primarily travel difficulties. Be prepared for snow covered
roads and limited visibilities, and use caution while driving.
The latest Road conditions for the state you are calling from can
be obtained by calling 5 1 1.